Airfield :
LOGIN :

Register | Disclaimer

   EN    FR    IT 

 










Legend :    VFR   Marginal VFR   IFR   Intensive IFR   Very Intensive IFR
Visi :
Ceiling :
>= 8 km
>= 3000ft
5 to 8 km
1000 to 3000 ft
1500m to 5 km
500 to 1000 ft
800 to 1500m
200 to 500 ft
< 800m
< 200 ft
Symbols :   Thunderstorms  Fog  Heavy snow  Heavy precipitations  Wind > 20 kt
SIGMETs :     Misc.  Thunderstorms  Icing  Turbulence  Mountain Waves  Volcanic Ashes






- Airport Elevation : 194 ft
- IATA code : LME


LFRM - Le Mans

CURRENT METAR :
  • 201600Z AUTO 36006KT 310V020 9999 FEW008/// BKN080/// BKN100/// ///CB 16/14 Q1008 TEMPO VRB15G25KT 1400 TSRAGR BKN007 BKN025CB

EXPIRED METARs :
  • 201530Z AUTO 35008KT 320V020 9999 SCT011/// BKN017/// BKN076/// ///TCU 16/14 Q1008 TEMPO VRB15G25KT 1400 TSRAGR BKN007 BKN025CB
  • 201500Z AUTO 35007KT 320V020 9999 -RA SCT016/// SCT030/// OVC070/// ///CB 16/15 Q1009 TEMPO VRB15G25KT 1400 TSRAGR BKN007 BKN025CB
  • 201430Z AUTO 34005KT 310V020 9999 FEW016/// SCT054/// BKN086/// ///CB 16/14 Q1009 TEMPO VRB15G25KT 1400 TSRAGR BKN007 BKN025CB
  • 201400Z AUTO VRB02KT 9999 -RA FEW015/// OVC076/// ///CB 16/14 Q1009 TEMPO VRB15G25KT 1400 TSRAGR BKN007 BKN025CB
  • 201330Z AUTO 15004KT 120V190 9999 -RA SCT026/// BKN037/// BKN044/// ///CB 16/14 Q1009 TEMPO VRB15G25KT 1400 TSRAGR BKN007 BKN025CB
  • 201300Z AUTO 19004KT 140V260 9999 TSRA FEW036/// BKN066/// OVC078/// ///CB 15/14 Q1009 TEMPO VRB15G25KT 1400 TSRAGR BKN007 BKN025CB
  • 201230Z AUTO 18006KT 140V210 9000 -RA VCTS SCT048/// BKN058/// BKN068/// ///CB 15/14 Q1009 TEMPO VRB15G25KT 1400 TSRAGR BKN007 BKN025CB
  • 201200Z AUTO 14012KT 120V180 9999 -TSRA SCT039/// BKN058/// BKN086/// ///CB 15/13 Q1009 TEMPO VRB15G25KT 1400 TSRAGR BKN007 BKN025CB
  • 201130Z AUTO 11006KT 060V130 9999 TS FEW035/// BKN043/// BKN058/// ///CB 19/12 Q1009 TEMPO VRB15G25KT 1400 TSRAGR BKN007 BKN025CB

TAF TAF LFRM
Valid from the 20 at 12:00 until the 21 at 12:00 UTC


201100Z 2012/2112 VRB05KT 9999 SCT025 BKN100
TEMPO 2012/2022 4000 SHRA SCT008 BKN025TCU
PROB40
TEMPO 2012/2018 VRB15G25KT 1400 TSRAGR BKN007 BKN025CB
TEMPO 2100/2103 BKN008
TEMPO 2108/2112 4000 SHRA BKN020TCU



MET'MAP, your aeronautical weather chart ! - Copyright ORBIFLY December 2007 - Disclaimer

ORBIFLY MET'MAP TEAM :

Programming & Development : Alexandra Zaïnal
Original concept : Baudouin d'Aumeries
Technical & hardware support : Manuel Goepfert
Assistance : Marc-Olivier Méhu




SOURCES & CREDITS :

   NOAA